sensor_id;sensor_type;location;lat;lon;timestamp;pressure;altitude;pressure_sealevel;temperature
67353;BMP180;54238;52.278;21.056;2022-10-31T00:00:08;100810.60;;;11.30
67353;BMP180;54238;52.278;21.056;2022-10-31T00:03:02;100812.40;;;11.30
67353;BMP180;54238;52.278;21.056;2022-10-31T00:05:32;100813.40;;;11.20
67353;BMP180;54238;52.278;21.056;2022-10-31T00:08:04;100808.40;;;11.20
67353;BMP180;54238;52.278;21.056;2022-10-31T00:10:39;100809.20;;;11.20
67353;BMP180;54238;52.278;21.056;2022-10-31T00:13:10;100807.20;;;11.20
67353;BMP180;54238;52.278;21.056;2022-10-31T00:15:39;100808.00;;;11.20
67353;BMP180;54238;52.278;21.056;2022-10-31T00:18:09;100807.60;;;11.20
67353;BMP180;54238;52.278;21.056;2022-10-31T00:20:42;100811.80;;;11.20
67353;BMP180;54238;52.278;21.056;2022-10-31T00:23:12;100811.40;;;11.20
67353;BMP180;54238;52.278;21.056;2022-10-31T00:25:43;100812.60;;;11.20
67353;BMP180;54238;52.278;21.056;2022-10-31T00:28:15;100809.60;;;11.20
67353;BMP180;54238;52.278;21.056;2022-10-31T00:30:42;100810.60;;;11.10
67353;BMP180;54238;52.278;21.056;2022-10-31T00:33:14;100807.60;;;11.10
67353;BMP180;54238;52.278;21.056;2022-10-31T00:35:50;100812.40;;;11.10
67353;BMP180;54238;52.278;21.056;2022-10-31T00:38:19;100810.60;;;11.00
67353;BMP180;54238;52.278;21.056;2022-10-31T00:40:48;100812.60;;;11.00
67353;BMP180;54238;52.278;21.056;2022-10-31T00:43:18;100815.40;;;10.96
67353;BMP180;54238;52.278;21.056;2022-10-31T00:45:48;100813.40;;;10.94
67353;BMP180;54238;52.278;21.056;2022-10-31T00:48:19;100814.40;;;10.96
67353;BMP180;54238;52.278;21.056;2022-10-31T00:50:48;100817.60;;;10.96
67353;BMP180;54238;52.278;21.056;2022-10-31T00:53:15;100817.80;;;11.00
67353;BMP180;54238;52.278;21.056;2022-10-31T00:55:42;100816.60;;;11.00
67353;BMP180;54238;52.278;21.056;2022-10-31T00:58:11;100815.20;;;10.90
67353;BMP180;54238;52.278;21.056;2022-10-31T01:00:39;100820.40;;;10.90
67353;BMP180;54238;52.278;21.056;2022-10-31T01:03:06;100823.80;;;10.80
67353;BMP180;54238;52.278;21.056;2022-10-31T01:05:35;100827.20;;;10.80
67353;BMP180;54238;52.278;21.056;2022-10-31T01:08:04;100826.20;;;10.80
67353;BMP180;54238;52.278;21.056;2022-10-31T01:10:31;100827.20;;;10.70
67353;BMP180;54238;52.278;21.056;2022-10-31T01:13:01;100826.80;;;10.64
67353;BMP180;54238;52.278;21.056;2022-10-31T01:15:28;100825.60;;;10.60
67353;BMP180;54238;52.278;21.056;2022-10-31T01:17:54;100823.20;;;10.60
67353;BMP180;54238;52.278;21.056;2022-10-31T01:20:24;100819.00;;;10.60
67353;BMP180;54238;52.278;21.056;2022-10-31T01:22:55;100817.20;;;10.54
67353;BMP180;54238;52.278;21.056;2022-10-31T01:25:24;100821.80;;;10.50
67353;BMP180;54238;52.278;21.056;2022-10-31T01:27:51;100828.60;;;10.48
67353;BMP180;54238;52.278;21.056;2022-10-31T01:30:20;100825.20;;;10.40
67353;BMP180;54238;52.278;21.056;2022-10-31T01:32:47;100825.60;;;10.40
67353;BMP180;54238;52.278;21.056;2022-10-31T01:35:46;100832.20;;;10.40
67353;BMP180;54238;52.278;21.056;2022-10-31T01:38:16;100827.80;;;10.30
67353;BMP180;54238;52.278;21.056;2022-10-31T01:40:43;100825.20;;;10.30
67353;BMP180;54238;52.278;21.056;2022-10-31T01:43:16;100830.40;;;10.30
67353;BMP180;54238;52.278;21.056;2022-10-31T01:45:53;100832.20;;;10.30
67353;BMP180;54238;52.278;21.056;2022-10-31T01:48:29;100829.80;;;10.30
67353;BMP180;54238;52.278;21.056;2022-10-31T01:50:58;100834.00;;;10.30
67353;BMP180;54238;52.278;21.056;2022-10-31T01:53:26;100838.00;;;10.30
67353;BMP180;54238;52.278;21.056;2022-10-31T01:56:03;100833.40;;;10.30
67353;BMP180;54238;52.278;21.056;2022-10-31T01:58:33;100835.40;;;10.24
67353;BMP180;54238;52.278;21.056;2022-10-31T02:01:03;100831.80;;;10.20
67353;BMP180;54238;52.278;21.056;2022-10-31T02:03:34;100833.20;;;10.20
67353;BMP180;54238;52.278;21.056;2022-10-31T02:06:08;100827.60;;;10.10
67353;BMP180;54238;52.278;21.056;2022-10-31T02:08:38;100825.80;;;10.10
67353;BMP180;54238;52.278;21.056;2022-10-31T02:11:10;100825.40;;;10.00
67353;BMP180;54238;52.278;21.056;2022-10-31T02:13:43;100820.40;;;10.10
67353;BMP180;54238;52.278;21.056;2022-10-31T02:16:10;100824.40;;;10.00
67353;BMP180;54238;52.278;21.056;2022-10-31T02:18:42;100821.00;;;10.00
67353;BMP180;54238;52.278;21.056;2022-10-31T02:21:36;100821.00;;;10.00
67353;BMP180;54238;52.278;21.056;2022-10-31T02:30:11;100825.00;;;9.90
67353;BMP180;54238;52.278;21.056;2022-10-31T02:39:20;100829.40;;;9.80
67353;BMP180;54238;52.278;21.056;2022-10-31T02:48:10;100829.60;;;9.80
67353;BMP180;54238;52.278;21.056;2022-10-31T02:50:52;100831.80;;;9.80
67353;BMP180;54238;52.278;21.056;2022-10-31T02:53:23;100832.80;;;9.80
67353;BMP180;54238;52.278;21.056;2022-10-31T02:55:58;100834.00;;;9.80
67353;BMP180;54238;52.278;21.056;2022-10-31T02:58:36;100834.20;;;9.78
67353;BMP180;54238;52.278;21.056;2022-10-31T03:16:14;100850.20;;;9.80
67353;BMP180;54238;52.278;21.056;2022-10-31T03:18:53;100851.80;;;9.80
67353;BMP180;54238;52.278;21.056;2022-10-31T03:22:01;100853.60;;;9.80
67353;BMP180;54238;52.278;21.056;2022-10-31T03:24:37;100858.40;;;9.80
67353;BMP180;54238;52.278;21.056;2022-10-31T03:27:13;100859.60;;;9.70
67353;BMP180;54238;52.278;21.056;2022-10-31T03:29:47;100859.60;;;9.70
67353;BMP180;54238;52.278;21.056;2022-10-31T03:32:24;100858.40;;;9.60
67353;BMP180;54238;52.278;21.056;2022-10-31T03:34:59;100863.20;;;9.60
67353;BMP180;54238;52.278;21.056;2022-10-31T03:37:35;100865.40;;;9.60
67353;BMP180;54238;52.278;21.056;2022-10-31T03:40:08;100865.00;;;9.60
67353;BMP180;54238;52.278;21.056;2022-10-31T03:42:44;100866.60;;;9.50
67353;BMP180;54238;52.278;21.056;2022-10-31T03:45:22;100869.20;;;9.50
67353;BMP180;54238;52.278;21.056;2022-10-31T03:47:57;100871.00;;;9.50
67353;BMP180;54238;52.278;21.056;2022-10-31T03:50:38;100872.20;;;9.50
67353;BMP180;54238;52.278;21.056;2022-10-31T03:53:16;100871.60;;;9.50
67353;BMP180;54238;52.278;21.056;2022-10-31T03:56:00;100868.20;;;9.40
67353;BMP180;54238;52.278;21.056;2022-10-31T03:58:36;100869.00;;;9.48
67353;BMP180;54238;52.278;21.056;2022-10-31T04:01:11;100870.20;;;9.50
67353;BMP180;54238;52.278;21.056;2022-10-31T04:03:40;100871.20;;;9.50
67353;BMP180;54238;52.278;21.056;2022-10-31T04:06:16;100878.40;;;9.50
67353;BMP180;54238;52.278;21.056;2022-10-31T04:09:07;100871.60;;;9.50
67353;BMP180;54238;52.278;21.056;2022-10-31T04:11:43;100873.40;;;9.50
67353;BMP180;54238;52.278;21.056;2022-10-31T04:14:12;100872.20;;;9.50
67353;BMP180;54238;52.278;21.056;2022-10-31T04:16:43;100877.40;;;9.50
67353;BMP180;54238;52.278;21.056;2022-10-31T04:19:14;100876.00;;;9.50
67353;BMP180;54238;52.278;21.056;2022-10-31T04:21:41;100876.20;;;9.50
67353;BMP180;54238;52.278;21.056;2022-10-31T04:24:10;100879.60;;;9.50
67353;BMP180;54238;52.278;21.056;2022-10-31T04:26:39;100872.40;;;9.56
67353;BMP180;54238;52.278;21.056;2022-10-31T04:29:09;100876.00;;;9.60
67353;BMP180;54238;52.278;21.056;2022-10-31T04:31:38;100873.00;;;9.60
67353;BMP180;54238;52.278;21.056;2022-10-31T04:34:05;100879.00;;;9.62
67353;BMP180;54238;52.278;21.056;2022-10-31T04:36:37;100880.80;;;9.70
67353;BMP180;54238;52.278;21.056;2022-10-31T04:39:04;100880.80;;;9.70
67353;BMP180;54238;52.278;21.056;2022-10-31T04:41:31;100884.80;;;9.70
67353;BMP180;54238;52.278;21.056;2022-10-31T04:44:00;100886.00;;;9.70
67353;BMP180;54238;52.278;21.056;2022-10-31T04:46:32;100888.80;;;9.76
67353;BMP180;54238;52.278;21.056;2022-10-31T04:49:02;100889.80;;;9.72
67353;BMP180;54238;52.278;21.056;2022-10-31T04:51:29;100889.20;;;9.70
67353;BMP180;54238;52.278;21.056;2022-10-31T04:54:01;100889.60;;;9.70
67353;BMP180;54238;52.278;21.056;2022-10-31T04:56:28;100896.80;;;9.70
67353;BMP180;54238;52.278;21.056;2022-10-31T04:58:55;100891.40;;;9.60
67353;BMP180;54238;52.278;21.056;2022-10-31T05:01:31;100894.20;;;9.50
67353;BMP180;54238;52.278;21.056;2022-10-31T05:04:03;100889.00;;;9.50
67353;BMP180;54238;52.278;21.056;2022-10-31T05:06:32;100895.20;;;9.40
67353;BMP180;54238;52.278;21.056;2022-10-31T05:08:59;100897.20;;;9.40
67353;BMP180;54238;52.278;21.056;2022-10-31T05:11:30;100895.60;;;9.32
67353;BMP180;54238;52.278;21.056;2022-10-31T05:14:00;100895.60;;;9.30
67353;BMP180;54238;52.278;21.056;2022-10-31T05:16:32;100896.80;;;9.22
67353;BMP180;54238;52.278;21.056;2022-10-31T05:19:01;100897.60;;;9.20
67353;BMP180;54238;52.278;21.056;2022-10-31T05:21:31;100898.00;;;9.10
67353;BMP180;54238;52.278;21.056;2022-10-31T05:24:00;100898.00;;;9.10
67353;BMP180;54238;52.278;21.056;2022-10-31T05:26:29;100899.20;;;9.02
67353;BMP180;54238;52.278;21.056;2022-10-31T05:28:57;100897.00;;;9.00
67353;BMP180;54238;52.278;21.056;2022-10-31T05:31:26;100900.40;;;8.92
67353;BMP180;54238;52.278;21.056;2022-10-31T05:33:53;100902.40;;;8.90
67353;BMP180;54238;52.278;21.056;2022-10-31T05:36:22;100910.80;;;8.80
67353;BMP180;54238;52.278;21.056;2022-10-31T05:38:51;100909.60;;;8.70
67353;BMP180;54238;52.278;21.056;2022-10-31T05:41:23;100906.00;;;8.70
67353;BMP180;54238;52.278;21.056;2022-10-31T05:43:52;100907.80;;;8.64
67353;BMP180;54238;52.278;21.056;2022-10-31T05:46:18;100908.80;;;8.60
67353;BMP180;54238;52.278;21.056;2022-10-31T05:48:46;100915.60;;;8.60
67353;BMP180;54238;52.278;21.056;2022-10-31T05:51:15;100919.40;;;8.60
67353;BMP180;54238;52.278;21.056;2022-10-31T05:53:42;100923.20;;;8.60
67353;BMP180;54238;52.278;21.056;2022-10-31T05:56:09;100918.80;;;8.60
67353;BMP180;54238;52.278;21.056;2022-10-31T05:58:38;100917.80;;;8.60
67353;BMP180;54238;52.278;21.056;2022-10-31T06:01:08;100914.80;;;8.60
67353;BMP180;54238;52.278;21.056;2022-10-31T06:03:34;100914.20;;;8.60
67353;BMP180;54238;52.278;21.056;2022-10-31T06:06:06;100914.60;;;8.60
67353;BMP180;54238;52.278;21.056;2022-10-31T06:08:36;100911.40;;;8.60
67353;BMP180;54238;52.278;21.056;2022-10-31T06:11:05;100913.60;;;8.60
67353;BMP180;54238;52.278;21.056;2022-10-31T06:13:34;100913.20;;;8.70
67353;BMP180;54238;52.278;21.056;2022-10-31T06:16:04;100915.40;;;8.70
67353;BMP180;54238;52.278;21.056;2022-10-31T06:18:31;100912.80;;;8.70
67353;BMP180;54238;52.278;21.056;2022-10-31T06:20:58;100915.40;;;8.78
67353;BMP180;54238;52.278;21.056;2022-10-31T06:23:25;100921.40;;;8.80
67353;BMP180;54238;52.278;21.056;2022-10-31T06:25:52;100920.60;;;8.80
67353;BMP180;54238;52.278;21.056;2022-10-31T06:28:22;100921.20;;;8.90
67353;BMP180;54238;52.278;21.056;2022-10-31T06:30:51;100927.00;;;8.92
67353;BMP180;54238;52.278;21.056;2022-10-31T06:33:23;100922.80;;;9.00
67353;BMP180;54238;52.278;21.056;2022-10-31T06:35:52;100926.40;;;9.00
67353;BMP180;54238;52.278;21.056;2022-10-31T06:38:19;100927.00;;;9.10
67353;BMP180;54238;52.278;21.056;2022-10-31T06:40:51;100926.00;;;9.10
67353;BMP180;54238;52.278;21.056;2022-10-31T06:43:22;100931.40;;;9.12
67353;BMP180;54238;52.278;21.056;2022-10-31T06:45:52;100932.40;;;9.18
67353;BMP180;54238;52.278;21.056;2022-10-31T06:48:19;100938.40;;;9.20
67353;BMP180;54238;52.278;21.056;2022-10-31T06:50:46;100939.60;;;9.30
67353;BMP180;54238;52.278;21.056;2022-10-31T06:53:15;100938.60;;;9.30
67353;BMP180;54238;52.278;21.056;2022-10-31T06:55:44;100941.60;;;9.36
67353;BMP180;54238;52.278;21.056;2022-10-31T06:58:16;100938.20;;;9.40
67353;BMP180;54238;52.278;21.056;2022-10-31T07:00:48;100945.20;;;9.40
67353;BMP180;54238;52.278;21.056;2022-10-31T07:03:17;100943.60;;;9.50
67353;BMP180;54238;52.278;21.056;2022-10-31T07:05:49;100947.00;;;9.50
67353;BMP180;54238;52.278;21.056;2022-10-31T07:08:16;100942.80;;;9.60
67353;BMP180;54238;52.278;21.056;2022-10-31T07:10:53;100945.00;;;9.70
67353;BMP180;54238;52.278;21.056;2022-10-31T07:13:21;100943.40;;;9.78
67353;BMP180;54238;52.278;21.056;2022-10-31T07:16:02;100946.80;;;9.90
67353;BMP180;54238;52.278;21.056;2022-10-31T07:18:30;100944.60;;;9.96
67353;BMP180;54238;52.278;21.056;2022-10-31T07:21:02;100945.20;;;10.08
67353;BMP180;54238;52.278;21.056;2022-10-31T07:23:30;100952.20;;;10.10
67353;BMP180;54238;52.278;21.056;2022-10-31T07:25:58;100949.80;;;10.20
67353;BMP180;54238;52.278;21.056;2022-10-31T07:28:26;100950.20;;;10.22
67353;BMP180;54238;52.278;21.056;2022-10-31T07:30:57;100952.20;;;10.32
67353;BMP180;54238;52.278;21.056;2022-10-31T07:33:24;100954.60;;;10.44
67353;BMP180;54238;52.278;21.056;2022-10-31T07:36:02;100959.20;;;10.58
67353;BMP180;54238;52.278;21.056;2022-10-31T07:38:31;100962.40;;;10.60
67353;BMP180;54238;52.278;21.056;2022-10-31T07:41:00;100965.40;;;10.70
67353;BMP180;54238;52.278;21.056;2022-10-31T07:43:28;100960.00;;;10.70
67353;BMP180;54238;52.278;21.056;2022-10-31T07:45:57;100961.20;;;10.70
67353;BMP180;54238;52.278;21.056;2022-10-31T07:48:31;100957.20;;;10.80
67353;BMP180;54238;52.278;21.056;2022-10-31T07:50:58;100958.40;;;10.82
67353;BMP180;54238;52.278;21.056;2022-10-31T07:53:24;100957.80;;;10.90
67353;BMP180;54238;52.278;21.056;2022-10-31T07:55:58;100957.60;;;11.04
67353;BMP180;54238;52.278;21.056;2022-10-31T07:58:27;100957.00;;;11.10
67353;BMP180;54238;52.278;21.056;2022-10-31T08:00:57;100960.20;;;11.24
67353;BMP180;54238;52.278;21.056;2022-10-31T08:03:27;100959.20;;;11.40
67353;BMP180;54238;52.278;21.056;2022-10-31T08:05:54;100959.60;;;11.50
67353;BMP180;54238;52.278;21.056;2022-10-31T08:08:25;100965.20;;;11.70
67353;BMP180;54238;52.278;21.056;2022-10-31T08:10:54;100963.20;;;11.90
67353;BMP180;54238;52.278;21.056;2022-10-31T08:13:24;100964.60;;;12.10
67353;BMP180;54238;52.278;21.056;2022-10-31T08:15:57;100967.00;;;12.30
67353;BMP180;54238;52.278;21.056;2022-10-31T08:18:34;100971.60;;;12.50
67353;BMP180;54238;52.278;21.056;2022-10-31T08:21:05;100972.00;;;12.70
67353;BMP180;54238;52.278;21.056;2022-10-31T08:23:32;100970.40;;;12.94
67353;BMP180;54238;52.278;21.056;2022-10-31T08:26:00;100971.80;;;13.20
67353;BMP180;54238;52.278;21.056;2022-10-31T08:28:34;100975.80;;;13.34
67353;BMP180;54238;52.278;21.056;2022-10-31T08:31:05;100980.60;;;13.60
67353;BMP180;54238;52.278;21.056;2022-10-31T08:33:38;100978.00;;;13.88
67353;BMP180;54238;52.278;21.056;2022-10-31T08:36:06;100983.20;;;14.10
67353;BMP180;54238;52.278;21.056;2022-10-31T08:38:35;100983.00;;;14.42
67353;BMP180;54238;52.278;21.056;2022-10-31T08:41:02;100986.80;;;14.68
67353;BMP180;54238;52.278;21.056;2022-10-31T08:43:36;100990.60;;;15.00
67353;BMP180;54238;52.278;21.056;2022-10-31T08:46:07;100991.00;;;15.32
67353;BMP180;54238;52.278;21.056;2022-10-31T08:48:34;100995.60;;;15.76
67353;BMP180;54238;52.278;21.056;2022-10-31T08:51:04;100996.00;;;16.18
67353;BMP180;54238;52.278;21.056;2022-10-31T08:53:31;101001.40;;;16.54
67353;BMP180;54238;52.278;21.056;2022-10-31T08:55:58;100999.60;;;17.00
67353;BMP180;54238;52.278;21.056;2022-10-31T08:58:32;101000.20;;;17.40
67353;BMP180;54238;52.278;21.056;2022-10-31T09:01:02;101001.80;;;17.80
67353;BMP180;54238;52.278;21.056;2022-10-31T09:03:31;101005.80;;;18.18
67353;BMP180;54238;52.278;21.056;2022-10-31T09:06:03;101007.80;;;18.58
67353;BMP180;54238;52.278;21.056;2022-10-31T09:08:39;100999.60;;;18.80
67353;BMP180;54238;52.278;21.056;2022-10-31T09:11:06;101002.00;;;19.00
67353;BMP180;54238;52.278;21.056;2022-10-31T09:13:34;101003.80;;;19.28
67353;BMP180;54238;52.278;21.056;2022-10-31T09:16:01;101005.80;;;19.52
67353;BMP180;54238;52.278;21.056;2022-10-31T09:18:36;101004.00;;;19.76
67353;BMP180;54238;52.278;21.056;2022-10-31T09:21:05;101008.00;;;20.06
67353;BMP180;54238;52.278;21.056;2022-10-31T09:23:34;101011.20;;;20.30
67353;BMP180;54238;52.278;21.056;2022-10-31T09:26:06;101013.80;;;20.70
67353;BMP180;54238;52.278;21.056;2022-10-31T09:28:38;101013.20;;;20.84
67353;BMP180;54238;52.278;21.056;2022-10-31T09:31:09;101010.00;;;21.20
67353;BMP180;54238;52.278;21.056;2022-10-31T09:33:36;101011.20;;;21.52
67353;BMP180;54238;52.278;21.056;2022-10-31T09:36:04;101011.60;;;21.80
67353;BMP180;54238;52.278;21.056;2022-10-31T09:38:37;101018.60;;;22.02
67353;BMP180;54238;52.278;21.056;2022-10-31T09:41:46;101018.40;;;22.30
67353;BMP180;54238;52.278;21.056;2022-10-31T09:50:22;101023.00;;;23.00
67353;BMP180;54238;52.278;21.056;2022-10-31T09:53:17;101018.60;;;23.26
67353;BMP180;54238;52.278;21.056;2022-10-31T09:55:50;101023.60;;;23.50
67353;BMP180;54238;52.278;21.056;2022-10-31T09:58:27;101026.00;;;23.70
67353;BMP180;54238;52.278;21.056;2022-10-31T10:01:02;101026.20;;;23.82
67353;BMP180;54238;52.278;21.056;2022-10-31T10:03:40;101022.40;;;24.16
67353;BMP180;54238;52.278;21.056;2022-10-31T10:06:21;101021.20;;;24.50
67353;BMP180;54238;52.278;21.056;2022-10-31T10:08:49;101024.60;;;24.80
67353;BMP180;54238;52.278;21.056;2022-10-31T10:14:56;101021.20;;;25.16
67353;BMP180;54238;52.278;21.056;2022-10-31T10:17:38;101016.80;;;25.40
67353;BMP180;54238;52.278;21.056;2022-10-31T10:28:46;101014.40;;;26.20
67353;BMP180;54238;52.278;21.056;2022-10-31T10:31:24;101007.40;;;26.32
67353;BMP180;54238;52.278;21.056;2022-10-31T10:36:49;101014.20;;;26.62
67353;BMP180;54238;52.278;21.056;2022-10-31T10:41:51;101004.40;;;26.82
67353;BMP180;54238;52.278;21.056;2022-10-31T10:44:46;101010.60;;;27.14
67353;BMP180;54238;52.278;21.056;2022-10-31T10:48:27;101006.00;;;27.48
67353;BMP180;54238;52.278;21.056;2022-10-31T10:50:52;101008.00;;;27.66
67353;BMP180;54238;52.278;21.056;2022-10-31T10:53:50;101006.60;;;27.88
67353;BMP180;54238;52.278;21.056;2022-10-31T10:59:22;101017.60;;;28.40
67353;BMP180;54238;52.278;21.056;2022-10-31T11:01:52;101013.80;;;28.50
67353;BMP180;54238;52.278;21.056;2022-10-31T11:07:09;101009.40;;;28.40
67353;BMP180;54238;52.278;21.056;2022-10-31T11:09:38;101007.40;;;28.54
67353;BMP180;54238;52.278;21.056;2022-10-31T11:12:08;101015.60;;;28.70
67353;BMP180;54238;52.278;21.056;2022-10-31T11:14:52;101012.20;;;28.90
67353;BMP180;54238;52.278;21.056;2022-10-31T11:17:30;101009.80;;;29.00
67353;BMP180;54238;52.278;21.056;2022-10-31T11:22:47;101007.40;;;29.40
67353;BMP180;54238;52.278;21.056;2022-10-31T11:25:27;101009.00;;;29.60
67353;BMP180;54238;52.278;21.056;2022-10-31T11:28:09;101004.80;;;29.68
67353;BMP180;54238;52.278;21.056;2022-10-31T11:30:46;101007.40;;;29.60
67353;BMP180;54238;52.278;21.056;2022-10-31T11:33:47;101004.60;;;29.64
67353;BMP180;54238;52.278;21.056;2022-10-31T11:36:23;101008.80;;;29.82
67353;BMP180;54238;52.278;21.056;2022-10-31T11:38:56;101007.60;;;30.10
67353;BMP180;54238;52.278;21.056;2022-10-31T11:41:29;101007.80;;;30.30
67353;BMP180;54238;52.278;21.056;2022-10-31T11:44:10;101003.00;;;30.50
67353;BMP180;54238;52.278;21.056;2022-10-31T11:46:47;101001.80;;;30.92
67353;BMP180;54238;52.278;21.056;2022-10-31T11:49:28;101000.60;;;31.28
67353;BMP180;54238;52.278;21.056;2022-10-31T11:52:00;101001.00;;;31.60
67353;BMP180;54238;52.278;21.056;2022-10-31T11:54:46;101005.00;;;31.80
67353;BMP180;54238;52.278;21.056;2022-10-31T11:57:32;101011.60;;;31.88
67353;BMP180;54238;52.278;21.056;2022-10-31T12:02:47;101003.20;;;32.14
67353;BMP180;54238;52.278;21.056;2022-10-31T12:05:26;101003.40;;;32.10
67353;BMP180;54238;52.278;21.056;2022-10-31T12:07:59;101003.20;;;32.20
67353;BMP180;54238;52.278;21.056;2022-10-31T12:10:50;101004.80;;;32.04
67353;BMP180;54238;52.278;21.056;2022-10-31T12:13:32;101000.20;;;31.70
67353;BMP180;54238;52.278;21.056;2022-10-31T12:16:58;101000.40;;;31.40
67353;BMP180;54238;52.278;21.056;2022-10-31T12:22:14;100999.80;;;31.40
67353;BMP180;54238;52.278;21.056;2022-10-31T12:25:11;101001.00;;;31.40
67353;BMP180;54238;52.278;21.056;2022-10-31T12:43:29;100996.40;;;30.40
67353;BMP180;54238;52.278;21.056;2022-10-31T12:45:55;100990.00;;;30.40
67353;BMP180;54238;52.278;21.056;2022-10-31T12:52:31;100986.00;;;30.10
67353;BMP180;54238;52.278;21.056;2022-10-31T12:55:31;100993.00;;;29.82
67353;BMP180;54238;52.278;21.056;2022-10-31T12:58:23;100994.40;;;29.70
67353;BMP180;54238;52.278;21.056;2022-10-31T13:06:42;100990.80;;;29.40
67353;BMP180;54238;52.278;21.056;2022-10-31T13:09:19;100989.60;;;29.24
67353;BMP180;54238;52.278;21.056;2022-10-31T13:12:06;100989.40;;;29.02
67353;BMP180;54238;52.278;21.056;2022-10-31T13:14:49;100986.40;;;28.90
67353;BMP180;54238;52.278;21.056;2022-10-31T13:17:42;100985.00;;;28.78
67353;BMP180;54238;52.278;21.056;2022-10-31T13:23:34;100989.40;;;28.14
67353;BMP180;54238;52.278;21.056;2022-10-31T13:26:19;100988.40;;;27.90
67353;BMP180;54238;52.278;21.056;2022-10-31T13:29:10;100989.60;;;27.80
67353;BMP180;54238;52.278;21.056;2022-10-31T13:31:44;100991.00;;;27.70
67353;BMP180;54238;52.278;21.056;2022-10-31T13:34:35;100987.60;;;27.60
67353;BMP180;54238;52.278;21.056;2022-10-31T13:37:36;100985.00;;;27.70
67353;BMP180;54238;52.278;21.056;2022-10-31T13:40:24;100986.00;;;27.60
67353;BMP180;54238;52.278;21.056;2022-10-31T13:43:28;100986.60;;;27.40
67353;BMP180;54238;52.278;21.056;2022-10-31T13:46:02;100987.20;;;27.14
67353;BMP180;54238;52.278;21.056;2022-10-31T13:49:39;100985.00;;;26.92
67353;BMP180;54238;52.278;21.056;2022-10-31T13:54:40;100983.20;;;26.60
67353;BMP180;54238;52.278;21.056;2022-10-31T14:02:59;100975.00;;;25.92
67353;BMP180;54238;52.278;21.056;2022-10-31T14:05:37;100967.60;;;25.60
67353;BMP180;54238;52.278;21.056;2022-10-31T14:08:20;100971.40;;;25.32
67353;BMP180;54238;52.278;21.056;2022-10-31T14:10:53;100969.60;;;24.90
67353;BMP180;54238;52.278;21.056;2022-10-31T14:13:34;100969.60;;;24.60
67353;BMP180;54238;52.278;21.056;2022-10-31T14:16:29;100973.00;;;24.30
67353;BMP180;54238;52.278;21.056;2022-10-31T14:19:13;100965.80;;;24.00
67353;BMP180;54238;52.278;21.056;2022-10-31T14:21:47;100968.00;;;23.68
67353;BMP180;54238;52.278;21.056;2022-10-31T14:24:31;100964.20;;;23.30
67353;BMP180;54238;52.278;21.056;2022-10-31T14:30:30;100967.40;;;22.60
67353;BMP180;54238;52.278;21.056;2022-10-31T14:33:17;100966.00;;;22.30
67353;BMP180;54238;52.278;21.056;2022-10-31T14:36:36;100967.60;;;21.80
67353;BMP180;54238;52.278;21.056;2022-10-31T14:39:08;100969.40;;;21.42
67353;BMP180;54238;52.278;21.056;2022-10-31T14:50:53;100968.60;;;19.64
67353;BMP180;54238;52.278;21.056;2022-10-31T14:53:26;100963.80;;;19.26
67353;BMP180;54238;52.278;21.056;2022-10-31T14:55:57;100960.20;;;18.94
67353;BMP180;54238;52.278;21.056;2022-10-31T14:58:41;100965.20;;;18.62
67353;BMP180;54238;52.278;21.056;2022-10-31T15:01:25;100960.00;;;18.30
67353;BMP180;54238;52.278;21.056;2022-10-31T15:06:44;100965.20;;;17.90
67353;BMP180;54238;52.278;21.056;2022-10-31T15:09:27;100969.80;;;17.70
67353;BMP180;54238;52.278;21.056;2022-10-31T15:11:54;100969.40;;;17.46
67353;BMP180;54238;52.278;21.056;2022-10-31T15:14:30;100967.40;;;17.20
67353;BMP180;54238;52.278;21.056;2022-10-31T15:17:03;100971.40;;;17.00
67353;BMP180;54238;52.278;21.056;2022-10-31T15:19:34;100967.20;;;16.80
67353;BMP180;54238;52.278;21.056;2022-10-31T15:22:07;100968.80;;;16.60
67353;BMP180;54238;52.278;21.056;2022-10-31T15:24:39;100967.40;;;16.44
67353;BMP180;54238;52.278;21.056;2022-10-31T15:27:17;100963.60;;;16.30
67353;BMP180;54238;52.278;21.056;2022-10-31T15:29:55;100963.60;;;16.20
67353;BMP180;54238;52.278;21.056;2022-10-31T15:32:31;100966.20;;;16.00
67353;BMP180;54238;52.278;21.056;2022-10-31T15:34:58;100964.60;;;15.90
67353;BMP180;54238;52.278;21.056;2022-10-31T15:37:26;100967.40;;;15.74
67353;BMP180;54238;52.278;21.056;2022-10-31T15:40:06;100973.80;;;15.60
67353;BMP180;54238;52.278;21.056;2022-10-31T15:42:40;100969.80;;;15.50
67353;BMP180;54238;52.278;21.056;2022-10-31T15:47:53;100970.40;;;15.20
67353;BMP180;54238;52.278;21.056;2022-10-31T15:50:28;100970.60;;;15.10
67353;BMP180;54238;52.278;21.056;2022-10-31T15:52:57;100972.60;;;15.00
67353;BMP180;54238;52.278;21.056;2022-10-31T15:55:36;100971.80;;;14.90
67353;BMP180;54238;52.278;21.056;2022-10-31T15:58:14;100977.80;;;14.88
67353;BMP180;54238;52.278;21.056;2022-10-31T16:03:33;100977.60;;;14.70
67353;BMP180;54238;52.278;21.056;2022-10-31T16:06:19;100977.80;;;14.60
67353;BMP180;54238;52.278;21.056;2022-10-31T16:08:51;100977.00;;;14.60
67353;BMP180;54238;52.278;21.056;2022-10-31T16:11:34;100977.20;;;14.50
67353;BMP180;54238;52.278;21.056;2022-10-31T16:16:45;100974.60;;;14.40
67353;BMP180;54238;52.278;21.056;2022-10-31T16:19:30;100975.60;;;14.32
67353;BMP180;54238;52.278;21.056;2022-10-31T16:22:11;100975.00;;;14.30
67353;BMP180;54238;52.278;21.056;2022-10-31T16:25:24;100977.60;;;14.20
67353;BMP180;54238;52.278;21.056;2022-10-31T16:27:54;100977.60;;;14.20
67353;BMP180;54238;52.278;21.056;2022-10-31T16:30:40;100979.40;;;14.10
67353;BMP180;54238;52.278;21.056;2022-10-31T16:36:29;100982.20;;;14.06
67353;BMP180;54238;52.278;21.056;2022-10-31T16:38:56;100978.80;;;14.00
67353;BMP180;54238;52.278;21.056;2022-10-31T16:41:31;100976.20;;;14.00
67353;BMP180;54238;52.278;21.056;2022-10-31T16:44:04;100978.20;;;14.00